createdAt,value
2016-11-02T00:00:04.081Z,24.79
2016-11-02T00:01:17.136Z,24.68
2016-11-02T00:02:30.795Z,24.62
2016-11-02T00:03:43.399Z,24.68
2016-11-02T00:04:56.944Z,24.62
2016-11-02T00:06:10.199Z,24.58
2016-11-02T00:07:23.175Z,24.58
2016-11-02T00:08:36.294Z,24.53
2016-11-02T00:09:49.303Z,24.43
2016-11-02T00:11:01.870Z,24.48
2016-11-02T00:12:15.068Z,24.48
2016-11-02T00:13:28.207Z,24.47
2016-11-02T00:14:41.975Z,24.45
2016-11-02T00:15:55.193Z,24.41
2016-11-02T00:17:07.253Z,24.41
2016-11-02T00:18:20.288Z,24.31
2016-11-02T00:19:33.421Z,24.34
2016-11-02T00:20:47.189Z,24.28
2016-11-02T00:22:00.205Z,24.29
2016-11-02T00:23:13.805Z,24.28
2016-11-02T00:24:27.324Z,24.34
2016-11-02T00:25:41.172Z,24.22
2016-11-02T00:26:54.372Z,24.23
2016-11-02T00:28:07.988Z,24.22
2016-11-02T00:29:20.459Z,24.25
2016-11-02T00:30:34.368Z,24.29
2016-11-02T00:31:48.118Z,24.26
2016-11-02T00:33:01.270Z,24.23
2016-11-02T00:34:14.396Z,24.26
2016-11-02T00:35:28.652Z,24.19
2016-11-02T00:36:41.789Z,24.21
2016-11-02T00:37:54.895Z,24.29
2016-11-02T00:39:08.574Z,24.23
2016-11-02T00:40:21.583Z,24.21
2016-11-02T00:41:35.110Z,24.18
2016-11-02T00:42:48.867Z,24.19
2016-11-02T00:44:02.448Z,24.15
2016-11-02T00:45:15.696Z,24.19
2016-11-02T00:46:28.701Z,24.16
2016-11-02T00:47:41.742Z,24.13
2016-11-02T00:48:54.783Z,24.13
2016-11-02T00:50:07.956Z,24.11
2016-11-02T00:51:21.505Z,24.1
2016-11-02T00:52:34.109Z,24.13
2016-11-02T00:53:47.385Z,24.11
2016-11-02T00:55:01.136Z,24.1
2016-11-02T00:56:14.742Z,24.08
2016-11-02T00:57:27.990Z,24.01
2016-11-02T00:58:41.816Z,24.04
2016-11-02T00:59:57.078Z,24.13
2016-11-02T01:01:10.318Z,24.07
2016-11-02T01:02:23.414Z,24.04
2016-11-02T01:03:37.004Z,24.06
2016-11-02T01:04:49.958Z,24.1
2016-11-02T01:06:02.570Z,24.11
2016-11-02T01:07:15.150Z,24.01
2016-11-02T01:08:28.240Z,24.06
2016-11-02T01:09:40.231Z,24.07
2016-11-02T01:10:53.332Z,24.06
2016-11-02T01:12:06.904Z,24.01
2016-11-02T01:13:20.664Z,23.98
2016-11-02T01:14:33.766Z,23.92
2016-11-02T01:15:47.843Z,24
2016-11-02T01:17:00.992Z,24.01
2016-11-02T01:18:13.603Z,24.04
2016-11-02T01:19:27.312Z,23.91
2016-11-02T01:20:40.009Z,23.97
2016-11-02T01:21:52.674Z,23.98
2016-11-02T01:23:05.829Z,23.89
2016-11-02T01:24:19.481Z,23.86
2016-11-02T01:25:33.169Z,23.92
2016-11-02T01:26:45.685Z,24.01
2016-11-02T01:27:58.875Z,23.86
2016-11-02T01:29:12.468Z,23.92
2016-11-02T01:30:25.458Z,23.98
2016-11-02T01:31:38.968Z,23.96
2016-11-02T01:32:52.554Z,23.86
2016-11-02T01:34:05.659Z,23.92
2016-11-02T01:35:18.709Z,23.88
2016-11-02T01:36:31.932Z,23.88
2016-11-02T01:37:44.147Z,23.84
2016-11-02T01:38:57.977Z,23.86
2016-11-02T01:40:11.106Z,23.86
2016-11-02T01:41:23.689Z,23.85
2016-11-02T01:42:36.696Z,23.82
2016-11-02T01:43:49.741Z,23.81
2016-11-02T01:45:02.801Z,23.76
2016-11-02T01:46:16.286Z,23.78
2016-11-02T01:47:28.805Z,23.79
2016-11-02T01:48:41.429Z,23.82
2016-11-02T01:49:53.977Z,23.78
2016-11-02T01:51:07.118Z,23.88
2016-11-02T01:52:18.632Z,23.74
2016-11-02T01:53:32.377Z,23.85
2016-11-02T01:54:44.412Z,23.84
2016-11-02T01:55:57.534Z,23.79
2016-11-02T01:57:10.615Z,23.74
2016-11-02T01:58:24.190Z,23.78
2016-11-02T01:59:37.372Z,23.71
2016-11-02T02:00:49.983Z,23.73
2016-11-02T02:02:03.307Z,23.71
2016-11-02T02:03:16.481Z,23.71
2016-11-02T02:04:30.133Z,23.67
2016-11-02T02:05:43.715Z,23.66
2016-11-02T02:06:56.846Z,23.67
2016-11-02T02:08:10.446Z,23.67
2016-11-02T02:09:23.487Z,23.64
2016-11-02T02:10:35.058Z,23.69
2016-11-02T02:11:47.670Z,23.66
2016-11-02T02:13:01.226Z,23.66
2016-11-02T02:14:14.368Z,23.63
2016-11-02T02:15:28.088Z,23.56
2016-11-02T02:16:41.723Z,23.63
2016-11-02T02:17:55.347Z,23.59
2016-11-02T02:19:08.316Z,23.59
2016-11-02T02:20:20.923Z,23.61
2016-11-02T02:21:34.544Z,23.59
2016-11-02T02:22:48.092Z,23.55
2016-11-02T02:24:01.685Z,23.61
2016-11-02T02:25:14.743Z,23.6
2016-11-02T02:26:28.418Z,23.61
2016-11-02T02:27:41.647Z,23.6
2016-11-02T02:28:55.211Z,23.61
2016-11-02T02:30:08.259Z,23.59
2016-11-02T02:31:21.354Z,23.6
2016-11-02T02:32:34.549Z,23.59
2016-11-02T02:33:47.121Z,23.66
2016-11-02T02:35:01.012Z,23.66
2016-11-02T02:36:13.697Z,23.51
2016-11-02T02:37:27.275Z,23.51
2016-11-02T02:38:40.842Z,23.46
2016-11-02T02:39:54.511Z,23.49
2016-11-02T02:41:07.552Z,23.56
2016-11-02T02:42:20.157Z,23.51
2016-11-02T02:43:33.848Z,23.49
2016-11-02T02:44:46.900Z,23.55
2016-11-02T02:46:00.483Z,23.51
2016-11-02T02:47:14.172Z,23.54
2016-11-02T02:48:27.238Z,23.48
2016-11-02T02:49:40.315Z,23.55
2016-11-02T02:50:52.316Z,23.49
2016-11-02T02:52:05.319Z,23.49
2016-11-02T02:53:18.951Z,23.46
2016-11-02T02:54:32.090Z,23.48
2016-11-02T02:55:45.599Z,23.36
2016-11-02T02:56:59.197Z,23.44
2016-11-02T02:58:12.833Z,23.37
2016-11-02T02:59:25.389Z,23.44
2016-11-02T03:00:38.521Z,23.37
2016-11-02T03:01:51.247Z,23.33
2016-11-02T03:03:04.331Z,23.34
2016-11-02T03:04:17.945Z,23.33
2016-11-02T03:05:31.065Z,23.28
2016-11-02T03:06:44.614Z,23.28
2016-11-02T03:07:57.641Z,23.25
2016-11-02T03:09:10.756Z,23.22
2016-11-02T03:10:23.798Z,23.21
2016-11-02T03:11:37.349Z,23.11
2016-11-02T03:12:50.492Z,23.21
2016-11-02T03:14:03.615Z,23.1
2016-11-02T03:15:17.164Z,23.06
2016-11-02T03:16:30.807Z,23.15
2016-11-02T03:17:43.362Z,23.17
2016-11-02T03:18:56.914Z,23.18
2016-11-02T03:20:10.527Z,23.11
2016-11-02T03:21:24.151Z,23.1
2016-11-02T03:22:37.157Z,23.08
2016-11-02T03:23:50.695Z,23.14
2016-11-02T03:25:04.280Z,23.1
2016-11-02T03:26:17.850Z,23.11
2016-11-02T03:27:30.928Z,23.06
2016-11-02T03:28:43.917Z,23.11
2016-11-02T03:29:57.423Z,23.08
2016-11-02T03:31:24.914Z,23.01
2016-11-02T03:32:38.513Z,23.03
2016-11-02T03:33:51.607Z,22.96
2016-11-02T03:35:05.165Z,22.96
2016-11-02T03:36:18.236Z,22.95
2016-11-02T03:37:31.286Z,22.88
2016-11-02T03:38:44.371Z,22.88
2016-11-02T03:39:57.448Z,22.96
2016-11-02T03:41:11.025Z,22.89
2016-11-02T03:42:24.119Z,22.86
2016-11-02T03:43:37.212Z,22.81
2016-11-02T03:44:50.841Z,22.91
2016-11-02T03:46:03.905Z,22.85
2016-11-02T03:47:17.420Z,22.81
2016-11-02T03:48:29.390Z,22.85
2016-11-02T03:49:43.008Z,22.76
2016-11-02T03:50:55.552Z,22.78
2016-11-02T03:52:08.030Z,22.74
2016-11-02T03:53:21.135Z,22.78
2016-11-02T03:54:34.738Z,22.74
2016-11-02T03:55:47.770Z,22.74
2016-11-02T03:57:01.308Z,22.78
2016-11-02T03:58:14.901Z,22.74
2016-11-02T03:59:28.464Z,22.8
2016-11-02T04:00:41.014Z,22.85
2016-11-02T04:01:54.610Z,22.71
2016-11-02T04:03:07.646Z,22.8
2016-11-02T04:04:21.261Z,22.78
2016-11-02T04:05:34.916Z,22.78
2016-11-02T04:06:47.987Z,22.86
2016-11-02T04:08:01.620Z,22.85
2016-11-02T04:09:14.207Z,22.81
2016-11-02T04:10:27.823Z,22.77
2016-11-02T04:11:40.882Z,22.66
2016-11-02T04:12:53.458Z,22.8
2016-11-02T04:14:06.600Z,22.8
2016-11-02T04:15:20.206Z,22.77
2016-11-02T04:16:33.349Z,22.66
2016-11-02T04:17:46.920Z,22.66
2016-11-02T04:19:00.542Z,22.71
2016-11-02T04:20:14.228Z,22.77
2016-11-02T04:21:27.295Z,22.8
2016-11-02T04:22:40.912Z,22.68
2016-11-02T04:23:54.513Z,22.7
2016-11-02T04:25:08.161Z,22.71
2016-11-02T04:26:21.448Z,22.64
2016-11-02T04:27:35.054Z,22.67
2016-11-02T04:28:48.669Z,22.7
2016-11-02T04:30:02.280Z,22.67
2016-11-02T04:31:15.387Z,22.68
2016-11-02T04:32:28.486Z,22.64
2016-11-02T04:33:42.074Z,22.61
2016-11-02T04:34:55.718Z,22.67
2016-11-02T04:36:09.399Z,22.64
2016-11-02T04:37:23.013Z,22.68
2016-11-02T04:38:36.151Z,22.64
2016-11-02T04:39:48.654Z,22.59
2016-11-02T04:41:01.715Z,22.56
2016-11-02T04:42:13.748Z,22.67
2016-11-02T04:43:26.288Z,22.56
2016-11-02T04:44:39.347Z,22.55
2016-11-02T04:45:52.462Z,22.56
2016-11-02T04:47:06.062Z,22.59
2016-11-02T04:48:18.610Z,22.59
2016-11-02T04:49:31.758Z,22.56
2016-11-02T04:50:45.449Z,22.53
2016-11-02T04:51:58.524Z,22.53
2016-11-02T04:53:10.540Z,22.53
2016-11-02T04:54:24.119Z,22.52
2016-11-02T04:55:37.772Z,22.49
2016-11-02T04:56:51.339Z,22.48
2016-11-02T04:58:04.411Z,22.51
2016-11-02T04:59:18.074Z,22.48
2016-11-02T05:00:31.127Z,22.51
2016-11-02T05:01:44.219Z,22.48
2016-11-02T05:02:57.859Z,22.46
2016-11-02T05:04:11.457Z,22.53
2016-11-02T05:05:24.575Z,22.53
2016-11-02T05:06:38.190Z,22.48
2016-11-02T05:07:51.759Z,22.49
2016-11-02T05:09:04.332Z,22.49
2016-11-02T05:10:17.383Z,22.41
2016-11-02T05:11:30.478Z,22.46
2016-11-02T05:12:44.018Z,22.51
2016-11-02T05:13:57.592Z,22.48
2016-11-02T05:15:10.131Z,22.38
2016-11-02T05:16:23.245Z,22.43
2016-11-02T05:17:35.798Z,22.37
2016-11-02T05:18:49.441Z,22.37
2016-11-02T05:20:03.074Z,22.43
2016-11-02T05:21:16.147Z,22.23
2016-11-02T05:22:29.292Z,22.3
2016-11-02T05:23:42.902Z,22.3
2016-11-02T05:24:56.015Z,22.23
2016-11-02T05:26:09.082Z,22.25
2016-11-02T05:27:22.143Z,22.19
2016-11-02T05:28:35.766Z,22.11
2016-11-02T05:29:48.838Z,22.15
2016-11-02T05:31:01.460Z,22.13
2016-11-02T05:32:14.558Z,22.18
2016-11-02T05:33:27.650Z,22.06
2016-11-02T05:34:40.247Z,22.04
2016-11-02T05:35:53.396Z,22.01
2016-11-02T05:37:07.098Z,22
2016-11-02T05:38:20.165Z,22.01
2016-11-02T05:39:33.779Z,22.04
2016-11-02T05:40:46.401Z,22
2016-11-02T05:41:59.962Z,22
2016-11-02T05:43:13.594Z,22.01
2016-11-02T05:44:26.174Z,21.97
2016-11-02T05:45:39.295Z,21.97
2016-11-02T05:46:52.900Z,21.98
2016-11-02T05:48:05.435Z,21.85
2016-11-02T05:49:19.017Z,21.93
2016-11-02T05:50:32.622Z,21.91
2016-11-02T05:51:46.293Z,21.93
2016-11-02T05:52:59.909Z,21.93
2016-11-02T05:54:13.003Z,21.94
2016-11-02T05:55:26.683Z,21.93
2016-11-02T05:56:39.797Z,21.97
2016-11-02T05:57:53.393Z,21.98
2016-11-02T05:59:06.464Z,21.94
2016-11-02T06:00:20.107Z,22
2016-11-02T06:01:32.680Z,21.88
2016-11-02T06:02:46.283Z,21.96
2016-11-02T06:03:58.753Z,21.91
2016-11-02T06:05:11.891Z,21.88
2016-11-02T06:06:24.955Z,21.91
2016-11-02T06:07:38.599Z,21.85
2016-11-02T06:08:51.684Z,21.94
2016-11-02T06:10:04.772Z,21.94
2016-11-02T06:11:17.891Z,21.98
2016-11-02T06:12:31.418Z,22
2016-11-02T06:13:44.538Z,22
2016-11-02T06:14:58.214Z,21.96
2016-11-02T06:16:11.296Z,21.93
2016-11-02T06:17:24.909Z,21.98
2016-11-02T06:18:37.957Z,21.94
2016-11-02T06:19:51.561Z,21.85
2016-11-02T06:21:04.078Z,21.91
2016-11-02T06:22:16.648Z,22
2016-11-02T06:23:30.339Z,21.9
2016-11-02T06:24:43.397Z,21.9
2016-11-02T06:25:55.486Z,21.88
2016-11-02T06:27:09.076Z,21.9
2016-11-02T06:28:22.693Z,21.9
2016-11-02T06:29:35.848Z,21.91
2016-11-02T06:30:49.000Z,21.82
2016-11-02T06:32:02.140Z,21.84
2016-11-02T06:33:14.683Z,21.84
2016-11-02T06:34:27.835Z,21.88
2016-11-02T06:35:40.891Z,21.88
2016-11-02T06:36:53.956Z,21.81
2016-11-02T06:38:07.589Z,21.9
2016-11-02T06:39:20.154Z,21.91
2016-11-02T06:40:33.735Z,21.96
2016-11-02T06:41:47.409Z,21.91
2016-11-02T06:43:01.037Z,21.88
2016-11-02T06:44:14.618Z,21.9
2016-11-02T06:45:28.265Z,21.85
2016-11-02T06:46:40.755Z,21.93
2016-11-02T06:47:53.849Z,21.9
2016-11-02T06:49:06.390Z,21.85
2016-11-02T06:50:18.441Z,21.77
2016-11-02T06:51:30.536Z,21.8
2016-11-02T06:52:43.614Z,21.77
2016-11-02T06:53:57.216Z,21.78
2016-11-02T06:55:09.792Z,21.77
2016-11-02T06:56:22.887Z,21.73
2016-11-02T06:57:36.595Z,21.75
2016-11-02T06:58:50.275Z,21.75
2016-11-02T07:00:02.865Z,21.75
2016-11-02T07:01:15.953Z,21.77
2016-11-02T07:02:28.488Z,21.78
2016-11-02T07:03:42.110Z,21.82
2016-11-02T07:04:55.175Z,21.75
2016-11-02T07:06:08.788Z,21.81
2016-11-02T07:07:22.392Z,21.77
2016-11-02T07:08:35.496Z,21.8
2016-11-02T07:09:48.569Z,21.71
2016-11-02T07:11:01.086Z,21.73
2016-11-02T07:12:13.095Z,21.78
2016-11-02T07:13:25.554Z,21.67
2016-11-02T07:14:38.613Z,21.78
2016-11-02T07:15:51.176Z,21.74
2016-11-02T07:17:03.809Z,21.73
2016-11-02T07:18:16.906Z,21.74
2016-11-02T07:19:28.418Z,21.67
2016-11-02T07:20:41.465Z,21.67
2016-11-02T07:21:55.164Z,21.59
2016-11-02T07:23:07.692Z,21.65
2016-11-02T07:24:21.323Z,21.67
2016-11-02T07:25:33.886Z,21.66
2016-11-02T07:26:46.935Z,21.62
2016-11-02T07:28:00.042Z,21.67
2016-11-02T07:29:13.087Z,21.65
2016-11-02T07:30:25.624Z,21.69
2016-11-02T07:31:38.105Z,21.71
2016-11-02T07:32:50.135Z,21.69
2016-11-02T07:34:03.253Z,21.66
2016-11-02T07:35:16.815Z,21.71
2016-11-02T07:36:29.913Z,21.6
2016-11-02T07:37:42.451Z,21.6
2016-11-02T07:38:55.456Z,21.71
2016-11-02T07:40:08.495Z,21.66
2016-11-02T07:41:22.208Z,21.69
2016-11-02T07:42:34.757Z,21.51
2016-11-02T07:43:48.324Z,21.58
2016-11-02T07:45:01.456Z,21.59
2016-11-02T07:46:15.082Z,21.58
2016-11-02T07:47:27.619Z,21.63
2016-11-02T07:48:41.268Z,21.6
2016-11-02T07:49:53.896Z,21.58
2016-11-02T07:51:06.471Z,21.55
2016-11-02T07:52:19.502Z,21.62
2016-11-02T07:53:32.532Z,21.59
2016-11-02T07:54:45.592Z,21.59
2016-11-02T07:55:58.109Z,21.59
2016-11-02T07:57:11.705Z,21.55
2016-11-02T07:58:24.788Z,21.53
2016-11-02T07:59:37.914Z,21.55
2016-11-02T08:00:50.907Z,21.5
2016-11-02T08:02:03.528Z,21.48
2016-11-02T08:03:17.185Z,21.45
2016-11-02T08:04:29.233Z,21.45
2016-11-02T08:05:41.794Z,21.45
2016-11-02T08:06:55.455Z,21.43
2016-11-02T08:08:07.500Z,21.48
2016-11-02T08:09:20.656Z,21.5
2016-11-02T08:10:34.346Z,21.5
2016-11-02T08:11:48.055Z,21.48
2016-11-02T08:13:01.703Z,21.44
2016-11-02T08:14:14.739Z,21.48
2016-11-02T08:15:28.327Z,21.51
2016-11-02T08:16:40.859Z,21.41
2016-11-02T08:17:53.888Z,21.47
2016-11-02T08:19:06.379Z,21.59
2016-11-02T08:20:18.970Z,21.56
2016-11-02T08:21:32.051Z,21.6
2016-11-02T08:22:45.659Z,21.51
2016-11-02T08:23:58.184Z,21.59
2016-11-02T08:25:11.262Z,21.63
2016-11-02T08:26:24.344Z,21.65
2016-11-02T08:27:37.386Z,21.6
2016-11-02T08:28:50.456Z,21.59
2016-11-02T08:30:03.986Z,21.58
2016-11-02T08:31:17.599Z,21.63
2016-11-02T08:32:31.131Z,21.66
2016-11-02T08:33:44.732Z,21.69
2016-11-02T08:34:56.781Z,21.6
2016-11-02T08:36:10.422Z,21.65
2016-11-02T08:37:23.957Z,21.67
2016-11-02T08:38:37.555Z,21.75
2016-11-02T08:39:50.101Z,21.78
2016-11-02T08:41:03.641Z,22
2016-11-02T08:42:17.290Z,22.18
2016-11-02T08:43:30.342Z,22.34
2016-11-02T08:44:43.430Z,22.46
2016-11-02T08:45:56.474Z,22.53
2016-11-02T08:47:09.556Z,22.53
2016-11-02T08:48:22.683Z,22.51
2016-11-02T08:49:35.206Z,22.61
2016-11-02T08:50:48.795Z,22.66
2016-11-02T08:52:01.339Z,22.8
2016-11-02T08:53:13.887Z,22.88
2016-11-02T08:54:26.453Z,23.13
2016-11-02T08:55:39.014Z,23.33
2016-11-02T08:56:51.538Z,23.6
2016-11-02T08:58:04.637Z,23.84
2016-11-02T08:59:17.699Z,23.86
2016-11-02T09:00:30.283Z,24.07
2016-11-02T09:01:43.889Z,24.33
2016-11-02T09:02:57.544Z,24.44
2016-11-02T09:04:10.578Z,24.65
2016-11-02T09:05:23.655Z,24.66
2016-11-02T09:06:36.226Z,24.65
2016-11-02T09:07:49.315Z,24.76
2016-11-02T09:09:02.859Z,25
2016-11-02T09:10:15.420Z,25.06
2016-11-02T09:11:28.475Z,25.27
2016-11-02T09:12:42.062Z,25.41
2016-11-02T09:13:55.667Z,25.61
2016-11-02T09:15:08.713Z,25.77
2016-11-02T09:16:21.814Z,25.78
2016-11-02T09:17:34.292Z,25.89
2016-11-02T09:18:47.889Z,26.01
2016-11-02T09:20:00.955Z,26.01
2016-11-02T09:21:14.054Z,25.92
2016-11-02T09:22:26.034Z,25.66
2016-11-02T09:23:39.105Z,25.55
2016-11-02T09:24:52.150Z,25.52
2016-11-02T09:26:04.719Z,25.37
2016-11-02T09:27:17.319Z,25.23
2016-11-02T09:28:30.353Z,25.4
2016-11-02T09:29:43.397Z,25.33
2016-11-02T09:30:55.911Z,25.55
2016-11-02T09:32:08.976Z,25.55
2016-11-02T09:33:22.574Z,25.61
2016-11-02T09:34:35.651Z,25.34
2016-11-02T09:35:48.792Z,25.14
2016-11-02T09:37:01.355Z,25.01
2016-11-02T09:38:14.446Z,25.15
2016-11-02T09:39:28.065Z,25.06
2016-11-02T09:40:41.667Z,24.99
2016-11-02T09:41:54.797Z,24.81
2016-11-02T09:43:07.342Z,24.7
2016-11-02T09:44:20.463Z,24.59
2016-11-02T09:45:32.969Z,24.6
2016-11-02T09:46:46.058Z,24.41
2016-11-02T09:47:58.070Z,24.44
2016-11-02T09:49:11.155Z,24.34
2016-11-02T09:50:24.787Z,24.37
2016-11-02T09:51:37.791Z,24.22
2016-11-02T09:52:49.828Z,24.29
2016-11-02T09:54:02.338Z,24.23
2016-11-02T09:55:15.954Z,24.23
2016-11-02T09:56:29.547Z,24.13
2016-11-02T09:57:42.591Z,24.1
2016-11-02T09:58:55.116Z,24.07
2016-11-02T10:00:08.679Z,24.11
2016-11-02T10:01:20.147Z,24.11
2016-11-02T10:02:33.794Z,24.11
2016-11-02T10:03:46.334Z,24.06
2016-11-02T10:04:59.911Z,24.06
2016-11-02T10:06:13.010Z,24.1
2016-11-02T10:07:26.109Z,24.11
2016-11-02T10:08:38.600Z,24.13
2016-11-02T10:09:51.760Z,24.1
2016-11-02T10:11:05.279Z,24.15
2016-11-02T10:12:17.813Z,24.18
2016-11-02T10:13:31.391Z,24.11
2016-11-02T10:14:43.920Z,24.11
2016-11-02T10:15:56.476Z,24.15
2016-11-02T10:17:09.644Z,24.25
2016-11-02T10:18:22.193Z,24.31
2016-11-02T10:19:35.272Z,24.37
2016-11-02T10:20:48.843Z,24.43
2016-11-02T10:22:01.393Z,24.58
2016-11-02T10:23:13.922Z,24.6
2016-11-02T10:24:27.499Z,24.82
2016-11-02T10:25:40.549Z,24.79
2016-11-02T10:26:54.194Z,24.76
2016-11-02T10:28:07.237Z,24.68
2016-11-02T10:29:20.329Z,24.84
2016-11-02T10:30:32.863Z,24.74
2016-11-02T10:31:46.517Z,24.78
2016-11-02T10:32:58.526Z,24.76
2016-11-02T10:34:10.626Z,24.82
2016-11-02T10:35:23.744Z,24.79
2016-11-02T10:36:36.227Z,24.9
2016-11-02T10:37:48.819Z,24.89
2016-11-02T10:39:01.367Z,24.85
2016-11-02T10:40:13.881Z,25.03
2016-11-02T10:41:26.903Z,25
2016-11-02T10:42:39.941Z,24.89
2016-11-02T10:43:52.488Z,24.94
2016-11-02T10:45:05.594Z,24.78
2016-11-02T10:46:18.107Z,24.96
2016-11-02T10:47:30.067Z,24.99
2016-11-02T10:48:43.755Z,25.03
2016-11-02T10:49:56.804Z,25.01
2016-11-02T10:51:09.856Z,25.09
2016-11-02T10:52:23.508Z,25.06
2016-11-02T10:53:36.570Z,24.99
2016-11-02T10:54:49.154Z,25.11
2016-11-02T10:57:13.162Z,25.31
2016-11-02T10:58:25.686Z,25.48
2016-11-02T10:59:38.230Z,25.45
2016-11-02T11:00:50.788Z,25.37
2016-11-02T11:02:03.323Z,25.37
2016-11-02T11:03:16.379Z,25.37
2016-11-02T11:04:29.482Z,25.37
2016-11-02T11:05:43.148Z,25.43
2016-11-02T11:06:55.651Z,25.55
2016-11-02T11:08:09.218Z,25.7
2016-11-02T11:09:22.403Z,25.7
2016-11-02T11:10:35.465Z,25.78
2016-11-02T11:11:48.537Z,25.85
2016-11-02T11:13:01.093Z,25.86
2016-11-02T11:14:14.776Z,25.9
2016-11-02T11:15:27.372Z,26
2016-11-02T11:16:40.367Z,26.27
2016-11-02T11:17:53.422Z,26.6
2016-11-02T11:19:06.475Z,26.83
2016-11-02T11:20:20.028Z,27.05
2016-11-02T11:21:33.671Z,27.31
2016-11-02T11:22:46.771Z,27.4
2016-11-02T11:23:59.261Z,27.38
2016-11-02T11:25:12.323Z,27.52
2016-11-02T11:26:25.401Z,27.54
2016-11-02T11:27:37.452Z,27.66
2016-11-02T11:28:50.640Z,27.79
2016-11-02T11:30:03.794Z,27.87
2016-11-02T11:31:16.402Z,28.24
2016-11-02T11:32:28.602Z,28.44
2016-11-02T11:33:40.649Z,28.77
2016-11-02T11:34:53.712Z,28.86
2016-11-02T11:36:06.711Z,28.98
2016-11-02T11:37:20.304Z,29.03
2016-11-02T11:38:32.865Z,29.22
2016-11-02T11:39:45.930Z,29.21
2016-11-02T11:40:59.039Z,29.29
2016-11-02T11:42:12.677Z,29.28
2016-11-02T11:43:25.267Z,29.52
2016-11-02T11:44:38.906Z,29.59
2016-11-02T11:45:51.466Z,29.89
2016-11-02T11:47:04.059Z,29.91
2016-11-02T11:48:16.577Z,29.87
2016-11-02T11:49:29.126Z,29.86
2016-11-02T11:50:42.766Z,29.73
2016-11-02T11:51:55.801Z,29.58
2016-11-02T11:53:09.369Z,29.52
2016-11-02T11:54:22.486Z,29.52
2016-11-02T11:55:35.541Z,29.74
2016-11-02T11:56:48.063Z,29.83
2016-11-02T11:58:01.158Z,29.86
2016-11-02T11:59:14.758Z,29.95
2016-11-02T12:00:27.828Z,30.05
2016-11-02T12:01:40.890Z,30.22
2016-11-02T12:02:53.954Z,30.07
2016-11-02T12:04:07.064Z,30.11
2016-11-02T12:05:20.185Z,29.95
2016-11-02T12:06:33.252Z,30.05
2016-11-02T12:07:45.315Z,30.22
2016-11-02T12:08:57.967Z,30.33
2016-11-02T12:10:11.124Z,30.21
2016-11-02T12:11:24.258Z,30.22
2016-11-02T12:12:37.945Z,30.26
2016-11-02T12:13:49.942Z,30.46
2016-11-02T12:15:01.918Z,30.59
2016-11-02T12:16:14.929Z,30.89
2016-11-02T12:17:27.512Z,31.07
2016-11-02T12:18:40.121Z,31.08
2016-11-02T12:19:52.623Z,30.73
2016-11-02T12:21:05.723Z,30.35
2016-11-02T12:22:19.317Z,29.98
2016-11-02T12:23:32.417Z,29.89
2016-11-02T12:24:44.934Z,30.05
2016-11-02T12:25:57.991Z,30.21
2016-11-02T12:27:11.106Z,30.2
2016-11-02T12:28:24.255Z,30.35
2016-11-02T12:29:37.844Z,30.32
2016-11-02T12:30:50.923Z,30.2
2016-11-02T12:32:04.008Z,30.22
2016-11-02T12:33:16.728Z,30.35
2016-11-02T12:34:29.319Z,30.53
2016-11-02T12:35:42.431Z,30.56
2016-11-02T12:36:55.564Z,30.39
2016-11-02T12:38:08.623Z,30.64
2016-11-02T12:39:21.140Z,30.75
2016-11-02T12:40:33.198Z,30.8
2016-11-02T12:41:46.327Z,30.68
2016-11-02T12:42:59.319Z,30.51
2016-11-02T12:44:12.450Z,30.29
2016-11-02T12:45:25.038Z,30.2
2016-11-02T12:46:38.084Z,30.2
2016-11-02T12:47:51.683Z,30.21
2016-11-02T12:49:04.810Z,30.13
2016-11-02T12:50:16.905Z,29.99
2016-11-02T12:51:28.891Z,29.91
2016-11-02T12:52:41.940Z,29.84
2016-11-02T12:53:55.025Z,29.91
2016-11-02T12:55:08.645Z,29.84
2016-11-02T12:56:21.251Z,29.93
2016-11-02T12:57:34.264Z,29.98
2016-11-02T12:58:47.822Z,30.05
2016-11-02T13:00:00.917Z,30.22
2016-11-02T13:01:12.952Z,30.22
2016-11-02T13:02:24.963Z,30.26
2016-11-02T13:03:38.617Z,30.52
2016-11-02T13:04:51.732Z,30.68
2016-11-02T13:06:04.846Z,30.73
2016-11-02T13:07:17.961Z,30.46
2016-11-02T13:08:31.020Z,30.36
2016-11-02T13:09:43.586Z,30.32
2016-11-02T13:10:55.604Z,30.33
2016-11-02T13:12:08.150Z,30.37
2016-11-02T13:13:20.200Z,30.36
2016-11-02T13:14:33.285Z,30.18
2016-11-02T13:15:44.766Z,29.99
2016-11-02T13:16:58.404Z,29.98
2016-11-02T13:18:11.523Z,29.87
2016-11-02T13:19:25.165Z,29.91
2016-11-02T13:20:37.197Z,30.17
2016-11-02T13:21:49.166Z,30.21
2016-11-02T13:23:01.143Z,30.33
2016-11-02T13:24:14.732Z,30.1
2016-11-02T13:25:26.177Z,30.11
2016-11-02T13:26:39.780Z,30.4
2016-11-02T13:27:52.392Z,30.52
2016-11-02T13:29:04.414Z,30.8
2016-11-02T13:30:17.577Z,30.92
2016-11-02T13:31:30.670Z,30.97
2016-11-02T13:32:43.668Z,31.14
2016-11-02T13:33:55.733Z,31.05
2016-11-02T13:35:07.751Z,30.82
2016-11-02T13:36:20.802Z,30.43
2016-11-02T13:37:33.347Z,30.35
2016-11-02T13:38:46.411Z,30.6
2016-11-02T13:40:00.053Z,31.1
2016-11-02T13:41:12.583Z,31.22
2016-11-02T13:42:26.179Z,30.95
2016-11-02T13:43:38.718Z,30.77
2016-11-02T13:44:52.372Z,30.64
2016-11-02T13:46:05.485Z,30.58
2016-11-02T13:47:18.065Z,30.45
2016-11-02T13:48:31.178Z,30.18
2016-11-02T13:49:44.892Z,30.11
2016-11-02T13:50:58.027Z,30.08
2016-11-02T13:52:11.681Z,30.28
2016-11-02T13:53:24.744Z,30.3
2016-11-02T13:54:37.318Z,30.33
2016-11-02T13:55:49.833Z,30.35
2016-11-02T13:57:01.821Z,30.55
2016-11-02T13:58:15.444Z,30.86
2016-11-02T13:59:29.120Z,31.04
2016-11-02T14:00:42.249Z,30.97
2016-11-02T14:01:54.831Z,30.82
2016-11-02T14:03:07.969Z,30.78
2016-11-02T14:04:20.627Z,30.86
2016-11-02T14:05:33.203Z,31.08
2016-11-02T14:06:46.776Z,30.92
2016-11-02T14:08:00.360Z,30.78
2016-11-02T14:09:12.853Z,30.75
2016-11-02T14:10:26.437Z,30.67
2016-11-02T14:11:39.548Z,30.65
2016-11-02T14:12:52.042Z,30.59
2016-11-02T14:14:05.093Z,30.37
2016-11-02T14:15:17.198Z,30.33
2016-11-02T14:16:29.218Z,30.39
2016-11-02T14:17:41.766Z,30.2
2016-11-02T14:18:54.838Z,30.18
2016-11-02T14:20:07.436Z,30.24
2016-11-02T14:21:20.000Z,30.2
2016-11-02T14:22:33.616Z,30.22
2016-11-02T14:23:47.202Z,30.26
2016-11-02T14:25:00.844Z,30.21
2016-11-02T14:26:13.912Z,30.18
2016-11-02T14:27:26.993Z,30.15
2016-11-02T14:28:39.520Z,30.11
2016-11-02T14:29:51.520Z,30.14
2016-11-02T14:31:04.057Z,30.14
2016-11-02T14:32:16.968Z,30.14
2016-11-02T14:33:29.497Z,30.2
2016-11-02T14:34:42.555Z,30.3
2016-11-02T14:35:55.611Z,30.39
2016-11-02T14:37:08.663Z,30.45
2016-11-02T14:38:21.237Z,30.4
2016-11-02T14:39:34.830Z,30.65
2016-11-02T14:40:48.449Z,30.8
2016-11-02T14:42:00.465Z,30.75
2016-11-02T14:43:13.535Z,30.55
2016-11-02T14:44:27.093Z,30.52
2016-11-02T14:45:40.210Z,30.52
2016-11-02T14:46:53.827Z,30.6
2016-11-02T14:48:07.437Z,30.64
2016-11-02T14:49:19.946Z,30.48
2016-11-02T14:50:31.511Z,30.26
2016-11-02T14:51:44.823Z,30.28
2016-11-02T14:52:57.322Z,30.36
2016-11-02T14:54:09.762Z,30.3
2016-11-02T14:55:23.376Z,30.29
2016-11-02T14:56:35.919Z,30.28
2016-11-02T14:57:49.008Z,30.26
2016-11-02T14:59:02.054Z,30.22
2016-11-02T15:00:15.171Z,30.13
2016-11-02T15:01:28.269Z,30.2
2016-11-02T15:02:40.883Z,30.24
2016-11-02T15:03:53.903Z,30.28
2016-11-02T15:05:07.007Z,30.22
2016-11-02T15:06:19.566Z,30.17
2016-11-02T15:07:31.549Z,30.29
2016-11-02T15:08:44.687Z,30.39
2016-11-02T15:09:58.303Z,30.45
2016-11-02T15:11:10.897Z,30.28
2016-11-02T15:12:24.493Z,30.33
2016-11-02T15:13:37.530Z,30.24
2016-11-02T15:14:49.592Z,30.33
2016-11-02T15:16:03.197Z,30.39
2016-11-02T15:17:16.261Z,30.35
2016-11-02T15:18:29.938Z,30.39
2016-11-02T15:19:43.569Z,30.46
2016-11-02T15:20:56.701Z,30.46
2016-11-02T15:22:09.215Z,30.28
2016-11-02T15:23:21.752Z,30.21
2016-11-02T15:24:35.353Z,30.03
2016-11-02T15:25:47.903Z,30
2016-11-02T15:27:01.450Z,29.98
2016-11-02T15:28:15.048Z,30.07
2016-11-02T15:29:28.680Z,30.11
2016-11-02T15:30:40.671Z,30.13
2016-11-02T15:31:54.327Z,29.96
2016-11-02T15:33:07.936Z,29.99
2016-11-02T15:34:21.556Z,30.08
2016-11-02T15:35:33.591Z,30.13
2016-11-02T15:36:47.206Z,30.21
2016-11-02T15:38:00.869Z,30.22
2016-11-02T15:39:13.930Z,30.33
2016-11-02T15:40:26.490Z,30.45
2016-11-02T15:41:40.121Z,30.52
2016-11-02T15:42:52.681Z,30.68
2016-11-02T15:44:05.744Z,30.65
2016-11-02T15:45:18.342Z,30.64
2016-11-02T15:46:31.349Z,30.62